Time;durP1;ratioP1;P1;durP2;ratioP2;P2;SDS_P1;SDS_P2;PMS_P1;PMS_P2;Temp;Humidity;BMP_temperature;BMP_pressure;BME280_temperature;BME280_humidity;BME280_pressure;Samples;Min_cycle;Max_cycle;Signal;HPM_P1;HPM_P2
2023/01/15 00:00:28;;;;;;;;;;;;;;;9.21;77.68;99928.16;5038703;28;20340;-50
2023/01/15 00:02:54;;;;;;;;;;;;;;;9.21;78.25;99935.00;5039944;28;19929;-50
2023/01/15 00:05:19;;;;;;;;;;;;;;;9.17;77.83;99930.66;5039540;28;19975;-50
2023/01/15 00:07:45;;;;;;;;;;;;;;;9.14;76.21;99934.03;5040717;28;20322;-47
2023/01/15 00:10:10;;;;;;;;;;;;;;;9.10;77.06;99930.56;5039711;28;19935;-49
2023/01/15 00:12:35;;;;;;;;;;;;;;;9.08;76.94;99937.34;5038202;28;19975;-44
2023/01/15 00:15:00;;;;;;;;;;;;;;;9.08;77.42;99934.78;5023940;28;19933;-49
2023/01/15 00:17:26;;;;;;;;;;;;;;;9.09;77.12;99933.06;5042007;28;19921;-47
2023/01/15 00:19:51;;;;;;;;;;;;;;;9.08;75.41;99928.78;5042177;28;19924;-49
2023/01/15 00:22:16;;;;;;;;;;;;;;;9.06;76.17;99930.47;5043564;28;19936;-49
2023/01/15 00:27:38;;;;;;;;;;;;;;;9.06;76.76;99928.75;5043163;28;19932;-46
2023/01/15 00:30:04;;;;;;;;;;;;;;;9.08;76.56;99928.78;5039792;28;20632;-46
2023/01/15 00:32:29;;;;;;;;;;;;;;;9.06;76.90;99931.31;5040910;28;19955;-50
2023/01/15 00:34:55;;;;;;;;;;;;;;;9.04;76.70;99915.06;5046149;28;19916;-48
2023/01/15 00:37:20;;;;;;;;;;;;;;;9.04;76.67;99920.19;5045344;28;19925;-45
2023/01/15 00:39:46;;;;;;;;;;;;;;;9.04;76.80;99920.19;5043525;28;19924;-47
2023/01/15 00:42:11;;;;;;;;;;;;;;;9.05;76.83;99923.59;5045096;28;20324;-46
2023/01/15 00:44:36;;;;;;;;;;;;;;;9.03;77.03;99930.38;5046185;28;20098;-47
2023/01/15 00:47:01;;;;;;;;;;;;;;;9.02;76.70;99934.66;5043460;28;19929;-50
2023/01/15 00:49:27;;;;;;;;;;;;;;;9.01;76.94;99943.19;5044816;28;19932;-50
2023/01/15 00:51:52;;;;;;;;;;;;;;;9.00;76.66;99944.03;5042275;28;19944;-45
2023/01/15 00:54:17;;;;;;;;;;;;;;;8.99;77.23;99933.75;5045146;28;19946;-45
2023/01/15 00:56:42;;;;;;;;;;;;;;;8.97;77.09;99943.94;5045023;28;20011;-48
2023/01/15 00:59:08;;;;;;;;;;;;;;;8.94;76.82;99954.16;5045779;28;19913;-49
2023/01/15 01:01:33;;;;;;;;;;;;;;;8.92;76.92;99955.84;5044572;28;20405;-50
2023/01/15 01:03:58;;;;;;;;;;;;;;;8.93;77.50;99955.00;5042847;28;20329;-47
2023/01/15 01:06:24;;;;;;;;;;;;;;;8.92;77.14;99945.59;5039401;28;20023;-47
2023/01/15 01:08:49;;;;;;;;;;;;;;;8.91;76.82;99946.38;5043408;28;19960;-50
2023/01/15 01:11:16;;;;;;;;;;;;;;;8.90;76.88;99946.38;5043179;28;19928;-46
2023/01/15 01:13:42;;;;;;;;;;;;;;;8.91;77.49;99948.09;5038908;28;19925;-50
2023/01/15 01:16:24;;;;;;;;;;;;;;;8.91;76.98;99954.09;5043771;28;19966;-49
2023/01/15 01:18:49;;;;;;;;;;;;;;;8.90;77.11;99954.06;5042592;28;20379;-47
2023/01/15 01:21:14;;;;;;;;;;;;;;;8.89;76.97;99948.06;5045305;28;19924;-49
2023/01/15 01:23:40;;;;;;;;;;;;;;;8.89;76.81;99939.53;5040174;28;19924;-45
2023/01/15 01:26:05;;;;;;;;;;;;;;;8.90;77.27;99943.81;5042117;28;20019;-46
2023/01/15 01:28:30;;;;;;;;;;;;;;;8.89;76.85;99947.22;5041025;28;19960;-49
2023/01/15 01:30:55;;;;;;;;;;;;;;;8.88;77.18;99945.47;5042205;28;19929;-50
2023/01/15 01:33:20;;;;;;;;;;;;;;;8.89;77.49;99942.09;5042678;28;19936;-50
2023/01/15 01:35:46;;;;;;;;;;;;;;;8.87;77.64;99947.19;5044516;28;19978;-50
2023/01/15 01:38:12;;;;;;;;;;;;;;;8.86;78.18;99943.75;5036574;28;20033;-48
2023/01/15 01:40:38;;;;;;;;;;;;;;;8.85;77.40;99953.97;5034696;28;20016;-51
2023/01/15 01:43:05;;;;;;;;;;;;;;;8.82;76.95;99948.78;5046003;28;19967;-49
2023/01/15 01:45:33;;;;;;;;;;;;;;;8.81;77.26;99949.63;5045619;28;19928;-49
2023/01/15 01:47:59;;;;;;;;;;;;;;;8.79;77.59;99953.84;5047295;28;19912;-46
2023/01/15 01:50:26;;;;;;;;;;;;;;;8.78;77.46;99952.09;5044678;28;19925;-49
2023/01/15 01:52:54;;;;;;;;;;;;;;;8.77;76.96;99952.94;5045807;28;19921;-50
2023/01/15 01:55:22;;;;;;;;;;;;;;;8.70;77.10;99941.72;5046636;28;19917;-51
2023/01/15 01:57:49;;;;;;;;;;;;;;;8.65;76.86;99947.56;5045541;28;19944;-48
2023/01/15 02:00:14;;;;;;;;;;;;;;;8.64;77.27;99948.41;5046133;28;19916;-50
2023/01/15 02:02:42;;;;;;;;;;;;;;;8.67;77.64;99957.00;5047200;28;19932;-49
2023/01/15 02:05:10;;;;;;;;;;;;;;;8.67;77.32;99951.00;5046445;28;20369;-50
2023/01/15 02:07:35;;;;;;;;;;;;;;;8.66;77.45;99965.53;5048702;28;20412;-45
2023/01/15 02:10:00;;;;;;;;;;;;;;;8.64;76.91;99956.09;5046947;28;19963;-49
2023/01/15 02:12:37;;;;;;;;;;;;;;;8.64;77.10;99956.09;5041870;28;19935;-49
2023/01/15 02:15:02;;;;;;;;;;;;;;;8.63;76.71;99959.50;5041360;28;19966;-49
2023/01/15 02:17:47;;;;;;;;;;;;;;;8.61;75.50;99951.75;5047089;28;19924;-48
2023/01/15 02:20:31;;;;;;;;;;;;;;;8.60;76.36;99953.44;5047841;28;19917;-49
2023/01/15 02:23:02;;;;;;;;;;;;;;;8.58;75.68;99939.75;5032381;28;20444;-48
2023/01/15 02:25:39;;;;;;;;;;;;;;;8.58;76.40;99934.63;5044624;28;19979;-49
2023/01/15 02:28:17;;;;;;;;;;;;;;;8.57;75.88;99940.59;5047150;28;19970;-46
2023/01/15 02:30:46;;;;;;;;;;;;;;;8.57;76.35;99934.59;5046391;28;19923;-47
2023/01/15 02:33:15;;;;;;;;;;;;;;;8.55;76.55;99934.56;5048696;28;20007;-49
2023/01/15 02:35:40;;;;;;;;;;;;;;;8.55;76.41;99934.56;5043841;28;19917;-50
2023/01/15 02:38:07;;;;;;;;;;;;;;;8.56;76.21;99932.88;5047209;28;19996;-46
2023/01/15 02:40:33;;;;;;;;;;;;;;;8.54;75.59;99922.56;5048306;28;19928;-49
2023/01/15 02:42:59;;;;;;;;;;;;;;;8.54;75.97;99929.41;5050501;28;19916;-48
2023/01/15 02:45:27;;;;;;;;;;;;;;;8.51;75.93;99927.66;5049863;28;19951;-51
2023/01/15 02:47:54;;;;;;;;;;;;;;;8.50;76.24;99930.19;5050449;28;19913;-50
2023/01/15 02:50:21;;;;;;;;;;;;;;;8.49;76.87;99921.63;5050694;28;19956;-49
2023/01/15 02:52:50;;;;;;;;;;;;;;;8.49;76.38;99933.56;5050063;28;19978;-50
2023/01/15 02:55:22;;;;;;;;;;;;;;;8.47;76.68;99918.16;5051347;28;19940;-49
2023/01/15 02:57:49;;;;;;;;;;;;;;;8.48;76.86;99929.25;5031810;28;19921;-47
2023/01/15 03:00:15;;;;;;;;;;;;;;;8.48;76.62;99926.69;5048701;28;19921;-51
2023/01/15 03:02:48;;;;;;;;;;;;;;;8.50;76.93;99930.19;5052497;28;19947;-50
2023/01/15 03:05:19;;;;;;;;;;;;;;;8.47;76.28;99925.84;5051292;28;20331;-49
2023/01/15 03:07:56;;;;;;;;;;;;;;;8.48;76.57;99935.25;5048663;28;19963;-48
2023/01/15 03:10:33;;;;;;;;;;;;;;;8.48;76.45;99929.25;5050592;28;19920;-50
2023/01/15 03:13:02;;;;;;;;;;;;;;;8.48;76.12;99942.06;5051693;28;19924;-47
2023/01/15 03:18:34;;;;;;;;;;;;;;;8.46;75.93;99924.13;5045490;28;19939;-47
2023/01/15 03:21:03;;;;;;;;;;;;;;;8.43;75.84;99933.41;5052575;28;19921;-50
2023/01/15 03:23:29;;;;;;;;;;;;;;;8.42;75.85;99926.56;5054100;28;19948;-48
2023/01/15 03:25:54;;;;;;;;;;;;;;;8.40;75.52;99923.13;5045902;28;20278;-48
2023/01/15 03:28:23;;;;;;;;;;;;;;;8.40;75.70;99923.13;5044372;28;20385;-46
2023/01/15 03:30:48;;;;;;;;;;;;;;;8.38;75.74;99917.09;5053928;28;19970;-48
2023/01/15 03:33:14;;;;;;;;;;;;;;;8.35;75.21;99917.84;5047548;28;19929;-48
2023/01/15 03:35:45;;;;;;;;;;;;;;;8.33;74.93;99911.84;5050969;28;20400;-48
2023/01/15 03:38:12;;;;;;;;;;;;;;;8.32;75.15;99910.13;5047329;28;20420;-47
2023/01/15 03:40:41;;;;;;;;;;;;;;;8.32;75.57;99907.56;5049252;28;19963;-46
2023/01/15 03:45:59;;;;;;;;;;;;;;;8.30;75.32;99922.88;5048327;28;20409;-50
2023/01/15 03:48:29;;;;;;;;;;;;;;;8.29;75.02;99930.53;5047570;28;19971;-45
2023/01/15 03:50:59;;;;;;;;;;;;;;;8.28;74.59;99923.69;5050386;28;20397;-51
2023/01/15 03:53:29;;;;;;;;;;;;;;;8.24;75.26;99914.19;5048625;28;20840;-49
2023/01/15 03:56:13;;;;;;;;;;;;;;;8.24;75.05;99909.06;5050085;28;19928;-48
2023/01/15 03:58:42;;;;;;;;;;;;;;;8.23;74.37;99915.03;5049950;28;19925;-51
2023/01/15 04:01:09;;;;;;;;;;;;;;;8.21;74.90;99902.19;5048619;28;19917;-48
2023/01/15 04:03:36;;;;;;;;;;;;;;;8.22;74.94;99908.19;5049096;28;19916;-48
2023/01/15 04:06:02;;;;;;;;;;;;;;;8.23;75.18;99910.75;5048494;28;19975;-46
2023/01/15 04:08:30;;;;;;;;;;;;;;;8.23;74.82;99907.34;5047551;28;19933;-48
2023/01/15 04:10:56;;;;;;;;;;;;;;;8.22;74.19;99906.47;5049373;28;19933;-50
2023/01/15 04:13:21;;;;;;;;;;;;;;;8.19;74.60;99906.44;5047432;28;19924;-49
2023/01/15 04:15:47;;;;;;;;;;;;;;;8.19;74.71;99902.97;5050718;28;19929;-50
2023/01/15 04:18:12;;;;;;;;;;;;;;;8.18;74.18;99919.19;5049197;28;19998;-50
2023/01/15 04:20:37;;;;;;;;;;;;;;;8.13;74.09;99908.84;5048027;28;19920;-49
2023/01/15 04:23:03;;;;;;;;;;;;;;;8.14;74.75;99917.41;5048758;28;20369;-49
2023/01/15 04:25:28;;;;;;;;;;;;;;;8.12;73.61;99916.47;5046341;28;19924;-49
2023/01/15 04:27:54;;;;;;;;;;;;;;;8.08;73.77;99918.13;5052915;28;20289;-49
2023/01/15 04:30:19;;;;;;;;;;;;;;;8.09;74.22;99913.84;5045413;28;19987;-50
2023/01/15 04:32:47;;;;;;;;;;;;;;;8.07;73.68;99906.16;5055233;28;19920;-49
2023/01/15 04:35:12;;;;;;;;;;;;;;;8.05;73.82;99913.78;5049299;28;19921;-50
2023/01/15 04:37:38;;;;;;;;;;;;;;;8.02;73.96;99911.16;5049912;28;20305;-49
2023/01/15 04:40:03;;;;;;;;;;;;;;;8.01;74.23;99909.44;5047472;28;19924;-45
2023/01/15 04:45:12;;;;;;;;;;;;;;;8.01;73.90;99919.69;5048546;28;20411;-47
2023/01/15 04:47:38;;;;;;;;;;;;;;;8.00;74.33;99930.72;5046447;28;19929;-50
2023/01/15 04:50:03;;;;;;;;;;;;;;;8.00;73.98;99928.16;5048528;28;19937;-49
2023/01/15 04:52:28;;;;;;;;;;;;;;;7.99;73.45;99933.25;5045234;28;19928;-49
2023/01/15 04:54:54;;;;;;;;;;;;;;;7.99;74.14;99940.94;5044306;28;20012;-47
2023/01/15 04:57:19;;;;;;;;;;;;;;;7.96;73.58;99933.19;5048767;28;20388;-50
2023/01/15 04:59:45;;;;;;;;;;;;;;;7.96;74.11;99939.19;5049619;28;19921;-47
2023/01/15 05:02:10;;;;;;;;;;;;;;;7.95;74.20;99931.47;5047649;28;19920;-49
2023/01/15 05:04:35;;;;;;;;;;;;;;;7.95;73.97;99934.03;5046958;28;19935;-47
2023/01/15 05:07:01;;;;;;;;;;;;;;;7.93;73.88;99936.53;5047996;28;20369;-49
2023/01/15 05:09:26;;;;;;;;;;;;;;;7.91;74.02;99927.97;5047788;28;19928;-49
2023/01/15 05:11:52;;;;;;;;;;;;;;;7.91;74.25;99942.47;5045388;28;19929;-47
2023/01/15 05:14:17;;;;;;;;;;;;;;;7.89;74.44;99932.19;5046902;28;19954;-46
2023/01/15 05:16:43;;;;;;;;;;;;;;;7.89;74.00;99941.56;5050029;28;20054;-46
2023/01/15 05:19:08;;;;;;;;;;;;;;;7.88;74.41;99940.66;5049594;28;19920;-47
2023/01/15 05:21:35;;;;;;;;;;;;;;;7.89;74.79;99942.44;5048310;28;19917;-48
2023/01/15 05:24:01;;;;;;;;;;;;;;;7.90;74.59;99933.06;5044637;28;19933;-46
2023/01/15 05:26:27;;;;;;;;;;;;;;;7.88;74.67;99930.44;5042641;28;19921;-50
2023/01/15 05:28:53;;;;;;;;;;;;;;;7.89;73.94;99921.94;5048620;28;20025;-50
2023/01/15 05:31:19;;;;;;;;;;;;;;;7.87;74.09;99922.72;5043922;28;19974;-50
2023/01/15 05:33:45;;;;;;;;;;;;;;;7.86;74.09;99913.31;5049679;28;20340;-48
2023/01/15 05:36:12;;;;;;;;;;;;;;;7.86;74.18;99915.88;5048388;28;20898;-50
2023/01/15 05:38:37;;;;;;;;;;;;;;;7.85;73.87;99912.47;5032203;28;19917;-47
2023/01/15 05:41:47;;;;;;;;;;;;;;;7.84;73.70;99904.75;5049116;28;19929;-49
2023/01/15 05:43:49;;;;;;;;;;;;;;;7.85;73.24;99911.59;5048447;28;20344;-49
2023/01/15 05:46:14;;;;;;;;;;;;;;;7.80;73.28;99909.78;5045941;28;19968;-46
2023/01/15 05:48:39;;;;;;;;;;;;;;;7.78;73.19;99908.03;5048814;28;19975;-47
2023/01/15 05:51:04;;;;;;;;;;;;;;;7.77;72.99;99919.09;5050260;28;19960;-46
2023/01/15 05:53:33;;;;;;;;;;;;;;;7.75;73.02;99923.28;5045211;28;20312;-51
2023/01/15 05:55:59;;;;;;;;;;;;;;;7.74;73.41;99922.44;5050565;28;20433;-48
2023/01/15 05:58:25;;;;;;;;;;;;;;;7.74;73.46;99919.00;5047188;28;20325;-48
2023/01/15 06:00:50;;;;;;;;;;;;;;;7.74;73.46;99907.06;5047378;28;19929;-48
2023/01/15 06:03:15;;;;;;;;;;;;;;;7.74;73.50;99914.75;5043216;28;19951;-44
2023/01/15 06:05:40;;;;;;;;;;;;;;;7.74;72.95;99913.88;5048333;28;19932;-49
2023/01/15 06:08:06;;;;;;;;;;;;;;;7.74;73.66;99921.56;5044854;28;20373;-48
2023/01/15 06:10:31;;;;;;;;;;;;;;;7.74;73.85;99931.81;5049962;28;19933;-47
2023/01/15 06:12:56;;;;;;;;;;;;;;;7.71;74.75;99922.38;5042245;28;19970;-51
2023/01/15 06:15:21;;;;;;;;;;;;;;;7.71;76.01;99921.50;5048235;28;19975;-50
2023/01/15 06:17:48;;;;;;;;;;;;;;;7.70;76.97;99914.63;5047230;28;19924;-48
2023/01/15 06:20:13;;;;;;;;;;;;;;;7.70;77.35;99930.84;5042503;28;20423;-49
2023/01/15 06:22:38;;;;;;;;;;;;;;;7.68;78.09;99937.63;5039886;28;19929;-49
2023/01/15 06:25:04;;;;;;;;;;;;;;;7.71;77.92;99949.66;5043586;28;20089;-48
2023/01/15 06:27:29;;;;;;;;;;;;;;;7.69;78.11;99947.03;5045134;28;20377;-49
2023/01/15 06:29:57;;;;;;;;;;;;;;;7.69;78.13;99949.59;5042297;28;19925;-49
2023/01/15 06:32:22;;;;;;;;;;;;;;;7.68;78.11;99945.31;5028582;28;19947;-49
2023/01/15 06:34:48;;;;;;;;;;;;;;;7.67;77.98;99953.81;5045953;28;20369;-49
2023/01/15 06:37:13;;;;;;;;;;;;;;;7.65;77.89;99946.94;5051787;28;20692;-50
2023/01/15 06:39:39;;;;;;;;;;;;;;;7.63;77.98;99948.56;5045918;28;19925;-49
2023/01/15 06:47:32;;;;;;;;;;;;;;;7.60;77.26;99951.94;5047476;28;20349;-48
2023/01/15 06:49:57;;;;;;;;;;;;;;;7.57;77.22;99945.88;5045450;28;19932;-51
2023/01/15 06:52:23;;;;;;;;;;;;;;;7.53;77.42;99940.69;5045367;28;19932;-49
2023/01/15 06:54:49;;;;;;;;;;;;;;;7.52;76.93;99944.06;5045884;28;19924;-50
2023/01/15 06:57:14;;;;;;;;;;;;;;;7.49;76.97;99931.19;5046999;28;19967;-48
2023/01/15 06:59:39;;;;;;;;;;;;;;;7.48;76.76;99932.03;5045776;28;19929;-48
2023/01/15 07:02:05;;;;;;;;;;;;;;;7.47;76.69;99937.97;5045867;28;19927;-47
2023/01/15 07:04:30;;;;;;;;;;;;;;;7.47;76.32;99937.09;5046454;28;20277;-50
2023/01/15 07:06:56;;;;;;;;;;;;;;;7.46;76.64;99960.94;5046443;28;19928;-49
2023/01/15 07:09:21;;;;;;;;;;;;;;;7.44;75.96;99965.16;5044333;28;19964;-48
2023/01/15 07:11:49;;;;;;;;;;;;;;;7.42;75.61;99961.69;5046383;28;19929;-48
2023/01/15 07:14:25;;;;;;;;;;;;;;;7.40;76.01;99964.22;5049041;28;19921;-50
2023/01/15 07:16:50;;;;;;;;;;;;;;;7.37;75.73;99969.25;5046707;28;20280;-49
2023/01/15 07:19:16;;;;;;;;;;;;;;;7.36;75.84;99976.88;5052781;28;20008;-50
2023/01/15 07:21:41;;;;;;;;;;;;;;;7.37;76.34;99981.16;5042520;28;19923;-48
2023/01/15 07:24:06;;;;;;;;;;;;;;;7.38;75.70;99975.22;5048380;28;22355;-49
2023/01/15 07:26:32;;;;;;;;;;;;;;;7.37;75.86;99971.78;5043182;28;19986;-52
2023/01/15 07:28:57;;;;;;;;;;;;;;;7.38;75.89;99976.09;5052293;28;19921;-49
2023/01/15 07:31:22;;;;;;;;;;;;;;;7.36;75.56;99972.63;5044512;28;19963;-49
2023/01/15 07:33:48;;;;;;;;;;;;;;;7.34;75.35;99973.41;5049535;28;19967;-49
2023/01/15 07:36:13;;;;;;;;;;;;;;;7.32;74.70;99977.63;5048313;28;20270;-50
2023/01/15 07:38:38;;;;;;;;;;;;;;;7.32;75.32;99981.03;5050422;28;19928;-49
2023/01/15 07:51:59;;;;;;;;;;;;;;;7.27;75.14;100000.50;5048353;28;19927;-46
2023/01/15 07:54:24;;;;;;;;;;;;;;;7.28;74.49;99991.13;5047085;28;20007;-49
2023/01/15 07:56:51;;;;;;;;;;;;;;;7.26;74.06;99983.44;5050356;28;19931;-51
2023/01/15 07:59:17;;;;;;;;;;;;;;;7.25;74.62;99985.13;5050769;28;19948;-49
2023/01/15 08:01:42;;;;;;;;;;;;;;;7.25;74.61;99986.81;5046139;28;20673;-50
2023/01/15 08:04:08;;;;;;;;;;;;;;;7.23;74.20;99988.47;5046525;28;20015;-48
2023/01/15 08:06:34;;;;;;;;;;;;;;;7.23;74.38;100004.69;5054678;28;19925;-49
2023/01/15 08:08:59;;;;;;;;;;;;;;;7.21;73.83;99997.78;5050775;28;20438;-50
2023/01/15 08:16:53;;;;;;;;;;;;;;;7.16;74.47;100000.22;5050297;28;19928;-50
2023/01/15 08:19:18;;;;;;;;;;;;;;;7.17;74.21;100004.50;5046850;28;19925;-45
2023/01/15 08:21:43;;;;;;;;;;;;;;;7.16;74.03;99997.66;5048387;28;20432;-48
2023/01/15 08:24:09;;;;;;;;;;;;;;;7.13;73.70;100009.47;5049379;28;19921;-49
2023/01/15 08:26:34;;;;;;;;;;;;;;;7.13;73.96;100010.34;5045609;28;19921;-48
2023/01/15 08:29:00;;;;;;;;;;;;;;;7.12;74.12;100008.63;5048111;28;19924;-49
2023/01/15 08:31:25;;;;;;;;;;;;;;;7.14;73.96;100001.00;5049365;28;19929;-49
2023/01/15 08:33:50;;;;;;;;;;;;;;;7.12;73.39;100006.06;5046064;28;19944;-51
2023/01/15 08:36:17;;;;;;;;;;;;;;;7.13;73.28;100010.34;5048691;28;20336;-46
2023/01/15 08:38:42;;;;;;;;;;;;;;;7.13;73.72;100018.00;5046125;28;19921;-47
2023/01/15 08:41:07;;;;;;;;;;;;;;;7.16;73.43;100007.00;5048160;28;19966;-48
2023/01/15 08:43:33;;;;;;;;;;;;;;;7.15;73.21;100001.03;5047941;28;19925;-47
2023/01/15 08:45:59;;;;;;;;;;;;;;;7.14;73.09;99995.88;5044120;28;19965;-46
2023/01/15 08:48:25;;;;;;;;;;;;;;;7.15;73.49;100001.03;5045590;28;20389;-54
2023/01/15 08:50:50;;;;;;;;;;;;;;;7.17;73.23;99991.72;5047519;28;19921;-50
2023/01/15 08:53:17;;;;;;;;;;;;;;;7.18;72.93;99995.16;5045543;28;20158;-51
2023/01/15 08:55:43;;;;;;;;;;;;;;;7.18;73.14;99993.44;5043687;28;20321;-50
2023/01/15 08:58:08;;;;;;;;;;;;;;;7.20;73.33;100004.56;5045542;28;20393;-45
2023/01/15 09:00:33;;;;;;;;;;;;;;;7.22;73.17;99987.59;5045202;28;19929;-47
2023/01/15 09:02:58;;;;;;;;;;;;;;;7.29;72.97;100000.56;5045804;28;19921;-47
2023/01/15 09:05:24;;;;;;;;;;;;;;;7.34;72.95;99994.75;5042122;28;19935;-49
2023/01/15 09:07:49;;;;;;;;;;;;;;;7.41;73.05;99986.41;5043726;28;19932;-54
2023/01/15 09:10:15;;;;;;;;;;;;;;;7.53;73.24;99985.88;5044167;28;20324;-49
2023/01/15 09:12:41;;;;;;;;;;;;;;;7.66;72.21;99987.91;5042591;28;19943;-49
2023/01/15 09:15:06;;;;;;;;;;;;;;;7.80;72.00;99988.25;5041770;28;19928;-48
2023/01/15 09:17:32;;;;;;;;;;;;;;;7.95;71.57;99977.53;5042529;28;20126;-47
2023/01/15 09:19:57;;;;;;;;;;;;;;;8.09;70.68;99981.28;5025512;28;20851;-48
2023/01/15 09:22:22;;;;;;;;;;;;;;;8.25;70.25;99995.31;5039275;28;19929;-47
2023/01/15 09:24:47;;;;;;;;;;;;;;;8.40;70.27;99992.28;5043020;28;20019;-49
2023/01/15 09:27:13;;;;;;;;;;;;;;;8.58;69.91;99995.25;5043767;28;20413;-48
2023/01/15 09:29:38;;;;;;;;;;;;;;;8.80;70.11;99986.34;5042502;28;20521;-51
2023/01/15 09:32:04;;;;;;;;;;;;;;;8.97;68.83;99979.84;5040965;28;19921;-48
2023/01/15 09:34:29;;;;;;;;;;;;;;;9.14;68.41;99977.63;5043907;28;19940;-48
2023/01/15 09:36:54;;;;;;;;;;;;;;;9.26;68.36;99977.88;5039868;28;19925;-49
2023/01/15 09:39:20;;;;;;;;;;;;;;;9.39;68.47;99991.78;5041966;28;19931;-50
2023/01/15 09:42:07;;;;;;;;;;;;;;;9.45;67.83;99991.03;5042806;28;19974;-51
2023/01/15 09:44:51;;;;;;;;;;;;;;;9.43;66.18;99995.28;5041041;28;20512;-49
2023/01/15 09:47:16;;;;;;;;;;;;;;;9.34;65.88;99983.13;5038466;28;19923;-55
2023/01/15 09:49:50;;;;;;;;;;;;;;;9.29;65.93;99979.63;5045452;28;19925;-50
2023/01/15 09:52:16;;;;;;;;;;;;;;;9.21;66.20;99986.31;5043321;28;19931;-49
2023/01/15 09:54:47;;;;;;;;;;;;;;;9.12;66.15;99993.00;5044366;28;19924;-49
2023/01/15 09:57:14;;;;;;;;;;;;;;;9.19;65.88;99978.59;5043479;28;19916;-49
2023/01/15 09:59:44;;;;;;;;;;;;;;;9.32;67.02;99990.81;5040823;28;20422;-50
2023/01/15 10:02:21;;;;;;;;;;;;;;;9.51;67.51;99999.72;5042227;28;19920;-50
2023/01/15 10:04:52;;;;;;;;;;;;;;;9.71;66.50;100017.16;5042538;28;19925;-51
2023/01/15 10:07:25;;;;;;;;;;;;;;;9.83;65.74;100008.00;5043873;28;19928;-49
2023/01/15 10:09:57;;;;;;;;;;;;;;;9.95;64.64;100007.34;5037256;28;21480;-46
2023/01/15 10:12:35;;;;;;;;;;;;;;;10.03;65.05;100002.34;5042466;28;19927;-47
2023/01/15 10:15:12;;;;;;;;;;;;;;;10.13;65.89;100006.75;5040819;28;19913;-51
2023/01/15 10:17:42;;;;;;;;;;;;;;;10.24;63.54;100012.13;5040705;28;20008;-50
2023/01/15 10:20:26;;;;;;;;;;;;;;;10.31;62.60;100006.22;5039132;28;19912;-49
2023/01/15 10:23:09;;;;;;;;;;;;;;;10.33;62.80;99995.16;5042133;28;20279;-47
2023/01/15 10:25:57;;;;;;;;;;;;;;;10.34;62.57;100001.16;5044436;28;20006;-50
2023/01/15 10:28:27;;;;;;;;;;;;;;;10.30;61.56;100004.50;5031379;28;19932;-51
2023/01/15 10:30:54;;;;;;;;;;;;;;;10.21;61.41;99998.34;5041356;28;20372;-50
2023/01/15 10:33:41;;;;;;;;;;;;;;;10.19;61.79;100005.19;5041007;28;19924;-47
2023/01/15 10:36:35;;;;;;;;;;;;;;;10.24;62.41;99986.41;5036271;28;20288;-51
2023/01/15 10:39:08;;;;;;;;;;;;;;;10.38;62.42;100013.22;5025751;28;19924;-51
2023/01/15 10:41:40;;;;;;;;;;;;;;;10.42;60.80;100008.13;5041118;28;19975;-52
2023/01/15 10:44:14;;;;;;;;;;;;;;;10.35;60.93;100011.44;5040472;28;20301;-50
2023/01/15 10:46:39;;;;;;;;;;;;;;;10.20;60.46;100004.34;5040630;28;19920;-47
2023/01/15 10:49:12;;;;;;;;;;;;;;;10.11;62.49;100006.75;5043185;28;19939;-50
2023/01/15 10:51:43;;;;;;;;;;;;;;;10.17;61.83;100004.28;5042031;28;19919;-48
2023/01/15 10:54:27;;;;;;;;;;;;;;;10.26;61.97;99989.91;5044729;28;19999;-49
2023/01/15 10:57:00;;;;;;;;;;;;;;;10.24;61.78;100002.69;5045231;28;20043;-50
2023/01/15 10:59:46;;;;;;;;;;;;;;;10.25;62.56;99985.56;5042663;28;19924;-50
2023/01/15 11:02:23;;;;;;;;;;;;;;;10.20;62.17;100009.47;5044709;28;20003;-48
2023/01/15 11:04:49;;;;;;;;;;;;;;;10.17;61.96;99998.28;5048262;28;19917;-49
2023/01/15 11:07:15;;;;;;;;;;;;;;;10.09;61.87;99997.28;5046928;28;19924;-49
2023/01/15 11:09:40;;;;;;;;;;;;;;;10.01;61.79;100012.59;5047843;28;19983;-49
2023/01/15 11:20:26;;;;;;;;;;;;;;;9.80;63.30;100014.78;5048964;28;19924;-50
2023/01/15 11:22:51;;;;;;;;;;;;;;;9.73;62.78;100012.94;5051677;28;19967;-48
2023/01/15 11:25:29;;;;;;;;;;;;;;;9.66;62.68;100028.25;5049727;28;19971;-51
2023/01/15 11:27:55;;;;;;;;;;;;;;;9.61;63.42;100021.28;5046984;28;19928;-49
2023/01/15 11:30:25;;;;;;;;;;;;;;;9.51;62.15;100032.22;5030950;28;19925;-49
2023/01/15 11:32:55;;;;;;;;;;;;;;;9.35;63.67;100015.69;5049454;28;20408;-51
2023/01/15 11:35:20;;;;;;;;;;;;;;;9.29;63.89;100030.94;5049766;28;19927;-48
2023/01/15 11:37:46;;;;;;;;;;;;;;;9.25;63.77;100022.31;5047631;28;19924;-50
2023/01/15 11:40:15;;;;;;;;;;;;;;;9.23;64.18;100023.13;5045973;28;20011;-46
2023/01/15 11:51:20;;;;;;;;;;;;;;;9.13;64.45;100020.38;5049168;28;19919;-48
2023/01/15 11:53:48;;;;;;;;;;;;;;;9.12;64.80;100030.59;5046893;28;19932;-48
2023/01/15 11:56:22;;;;;;;;;;;;;;;9.12;65.31;100020.34;5047767;28;19925;-48
2023/01/15 11:58:52;;;;;;;;;;;;;;;9.11;65.13;100024.59;5049406;28;19925;-49
2023/01/15 12:01:34;;;;;;;;;;;;;;;9.08;65.31;100021.97;5046626;28;20472;-48
2023/01/15 12:04:01;;;;;;;;;;;;;;;9.07;66.76;100029.63;5048901;28;20406;-47
2023/01/15 12:06:28;;;;;;;;;;;;;;;9.04;67.88;100030.44;5048170;28;19925;-51
2023/01/15 12:09:00;;;;;;;;;;;;;;;8.98;68.56;100020.06;5029013;28;19921;-50
2023/01/15 12:11:38;;;;;;;;;;;;;;;8.94;69.31;100025.09;5047233;28;19924;-48
2023/01/15 12:14:03;;;;;;;;;;;;;;;8.86;69.16;100025.78;5047676;28;19928;-49
2023/01/15 12:16:41;;;;;;;;;;;;;;;8.84;69.70;100013.75;5047402;28;19917;-48
2023/01/15 12:19:06;;;;;;;;;;;;;;;8.81;70.17;100013.72;5043683;28;20413;-49
2023/01/15 12:21:37;;;;;;;;;;;;;;;8.80;70.35;100009.41;5046706;28;19925;-49
2023/01/15 12:24:37;;;;;;;;;;;;;;;8.83;70.27;100014.59;5045525;28;19921;-51
2023/01/15 12:27:13;;;;;;;;;;;;;;;8.83;70.64;100020.59;4986608;28;20335;-50
2023/01/15 12:29:44;;;;;;;;;;;;;;;8.80;70.59;100006.84;5039689;28;20368;-50
2023/01/15 12:32:12;;;;;;;;;;;;;;;8.77;70.08;100004.22;5045243;28;19920;-48
2023/01/15 12:34:56;;;;;;;;;;;;;;;8.72;69.61;99995.56;5043141;28;19917;-50
2023/01/15 12:37:31;;;;;;;;;;;;;;;8.68;69.40;100012.59;5047109;28;19920;-47
2023/01/15 12:40:16;;;;;;;;;;;;;;;8.66;68.92;100014.22;5048522;28;19956;-50
2023/01/15 12:45:37;;;;;;;;;;;;;;;8.63;69.86;100010.75;5044737;28;19931;-53
2023/01/15 12:48:13;;;;;;;;;;;;;;;8.62;69.87;100004.75;5045617;28;19929;-50
2023/01/15 12:50:51;;;;;;;;;;;;;;;8.63;70.30;100011.59;5045777;28;19917;-50
2023/01/15 12:53:23;;;;;;;;;;;;;;;8.67;70.05;100005.69;5043378;28;20297;-51
2023/01/15 12:55:53;;;;;;;;;;;;;;;8.67;69.77;100002.28;5048926;28;19924;-47
2023/01/15 12:58:37;;;;;;;;;;;;;;;8.64;69.40;100004.78;5048575;28;19924;-51
2023/01/15 13:01:15;;;;;;;;;;;;;;;8.62;69.49;100006.47;5045308;28;20296;-48
2023/01/15 13:03:43;;;;;;;;;;;;;;;8.63;70.19;100005.63;5044566;28;19962;-49
2023/01/15 13:06:09;;;;;;;;;;;;;;;8.64;69.86;99994.53;5040114;28;20376;-49
2023/01/15 13:08:53;;;;;;;;;;;;;;;8.63;70.10;99985.13;5045683;28;19921;-48
2023/01/15 13:11:19;;;;;;;;;;;;;;;8.64;70.45;99997.09;5045394;28;20400;-50
2023/01/15 13:13:56;;;;;;;;;;;;;;;8.64;70.14;100008.22;5046950;28;19921;-49
2023/01/15 13:16:22;;;;;;;;;;;;;;;8.63;69.58;99993.66;5047299;28;19920;-50
2023/01/15 13:18:56;;;;;;;;;;;;;;;8.62;69.51;99993.66;5046900;28;20377;-48
2023/01/15 13:21:24;;;;;;;;;;;;;;;8.63;69.68;99978.28;5046997;28;20461;-49
2023/01/15 13:23:58;;;;;;;;;;;;;;;8.64;69.56;99997.97;5048751;28;19974;-50
2023/01/15 13:26:35;;;;;;;;;;;;;;;8.64;68.87;100003.09;5044245;28;20523;-50
2023/01/15 13:29:15;;;;;;;;;;;;;;;8.64;69.36;99999.66;5047697;28;19917;-48
2023/01/15 13:31:44;;;;;;;;;;;;;;;8.64;69.11;99999.66;5048813;28;20332;-49
2023/01/15 13:34:14;;;;;;;;;;;;;;;8.63;69.61;100001.34;5047438;28;19912;-48
2023/01/15 13:36:42;;;;;;;;;;;;;;;8.64;69.56;100008.22;5049204;28;20369;-47
2023/01/15 13:39:15;;;;;;;;;;;;;;;8.66;70.00;100015.94;5034262;28;20055;-47
2023/01/15 13:44:27;;;;;;;;;;;;;;;8.64;70.04;100004.78;5047436;28;20003;-50
2023/01/15 13:47:00;;;;;;;;;;;;;;;8.63;70.57;100005.63;5047735;28;19918;-49
2023/01/15 13:49:30;;;;;;;;;;;;;;;8.60;69.95;100007.25;5047710;28;20400;-51
2023/01/15 13:51:58;;;;;;;;;;;;;;;8.62;69.83;100014.16;5029175;28;19931;-51
2023/01/15 13:54:25;;;;;;;;;;;;;;;8.60;70.14;100009.81;5047231;28;19948;-49